ADDS METAR Data INFO
IDs: Format: Raw Decoded Include TAF

Data at: 1917 UTC 16 Aug 2017

KMDD 161855Z AUTO 30003KT 10SM CLR 34/17 A2996 RMK AO2 T03420168
KMDD 161835Z AUTO 30004KT 10SM CLR 34/18 A2996 RMK AO2 T03350175
KMDD 161815Z AUTO 27006KT 10SM CLR 33/17 A2997 RMK AO2 T03300172
KMDD 161755Z AUTO 30003KT 10SM CLR 33/18 A2997 RMK AO2 T03250178 10325 20217
KMDD 161735Z AUTO 22005KT 10SM CLR 32/18 A2998 RMK AO2 T03200181
KMDD 161715Z AUTO 22003KT 10SM CLR 32/18 A2998 RMK AO2 T03160182
KMDD 161655Z AUTO 22004KT 10SM CLR 31/19 A2998 RMK AO2 T03090188
KMDD 161635Z AUTO 22006KT 10SM CLR 30/19 A2998 RMK AO2 T03030193
KMDD 161615Z AUTO 22006KT 10SM CLR 29/20 A2997 RMK AO2 T02940195
KMDD 161555Z AUTO 24007KT 10SM CLR 29/20 A2997 RMK AO2 T02890197
KMDD 161535Z AUTO 22008KT 170V230 10SM CLR 28/20 A2996 RMK AO2 T02820199
KMDD 161515Z AUTO 20009KT 10SM CLR 27/20 A2996 RMK AO2 T02710199
KMDD 161455Z AUTO 18008KT 10SM CLR 27/20 A2996 RMK AO2 T02660198
KMDD 161435Z AUTO 19008KT 10SM CLR 26/20 A2996 RMK AO2 T02580198
KMDD 161415Z AUTO 20007KT 10SM CLR 25/20 A2996 RMK AO2 T02480198
KMDD 161355Z AUTO 18007KT 10SM CLR 24/20 A2996 RMK AO2 T02410200
KMDD 161335Z AUTO 18008KT 10SM CLR 24/20 A2996 RMK AO2 T02350198
KMDD 161315Z AUTO 18005KT 10SM CLR 23/20 A2995 RMK AO2 T02270197
KMDD 161255Z AUTO 19004KT 10SM CLR 22/20 A2995 RMK AO2 T02190195
KMDD 161235Z AUTO 17006KT 10SM CLR 22/20 A2995 RMK AO2 T02180195
KMDD 161215Z AUTO 16006KT 10SM CLR 22/20 A2993 RMK AO2 T02180195
KMDD 161155Z AUTO 16006KT 10SM CLR 22/19 A2993 RMK AO2 T02170194 10230 20217
KMDD 161135Z AUTO 16006KT 10SM CLR 22/20 A2993 RMK AO2 T02200195
KMDD 161115Z AUTO 16005KT 10SM CLR 22/20 A2993 RMK AO2 T02180195
KMDD 161055Z AUTO 17005KT 10SM CLR 22/19 A2993 RMK AO2 T02180194
KMDD 161035Z AUTO 17005KT 10SM CLR 22/20 A2992 RMK AO2 T02180195
KMDD 161015Z AUTO 16007KT 7SM CLR 22/20 A2992 RMK AO2 T02180195
KMDD 160955Z AUTO 16006KT 5SM BR CLR 22/19 A2991 RMK AO2 T02190194
KMDD 160935Z AUTO 15008KT 7SM CLR 22/19 A2991 RMK AO2 T02200194
KMDD 160915Z AUTO 15006KT 7SM CLR 22/19 A2991 RMK AO2 T02210193
KMDD 160855Z AUTO 15005KT 10SM CLR 22/19 A2991 RMK AO2 T02190192
KMDD 160835Z AUTO 17005KT 10SM CLR 22/19 A2992 RMK AO2 T02210192
KMDD 160815Z AUTO 17003KT 10SM CLR 22/19 A2991 RMK AO2 T02220191
KMDD 160755Z AUTO 17003KT 10SM CLR 23/19 A2991 RMK AO2 T02250191
KMDD 160735Z AUTO 15007KT 10SM CLR 23/19 A2990 RMK AO2 T02250191
KMDD 160715Z AUTO 00000KT 10SM CLR 23/19 A2992 RMK AO2 T02250190
KMDD 160655Z AUTO 19003KT 10SM CLR 23/19 A2992 RMK AO2 T02260191
KMDD 160635Z AUTO 22004KT 10SM CLR 23/19 A2992 RMK AO2 T02270191
KMDD 160615Z AUTO 20005KT 10SM CLR 23/19 A2993 RMK AO2 T02280191
KMDD 160555Z AUTO 19006KT 10SM CLR 23/19 A2993 RMK AO2 T02300190 10268 20230 402800230
KMDD 160535Z AUTO 18007KT 10SM CLR 23/19 A2994 RMK AO2 T02300190
KMDD 160515Z AUTO 18006KT 10SM CLR 23/19 A2994 RMK AO2 T02330189
KMDD 160455Z AUTO 18007KT 10SM CLR 24/19 A2994 RMK AO2 T02360190
KMDD 160435Z AUTO 18006KT 10SM CLR 24/19 A2995 RMK AO2 T02380191
KMDD 160415Z AUTO 18004KT 10SM CLR 24/20 A2994 RMK AO2 T02410198
KMDD 160355Z AUTO 17006KT 10SM CLR 24/20 A2993 RMK AO2 T02430200
KMDD 160335Z AUTO 18008KT 10SM CLR 25/20 A2993 RMK AO2 T02460201
KMDD 160315Z AUTO 17007KT 10SM CLR 25/21 A2993 RMK AO2 T02500209
KMDD 160255Z AUTO 16011KT 10SM SCT014 26/22 A2992 RMK AO2 T02560217
KMDD 160235Z AUTO 15010G14KT 10SM BKN014 26/22 A2991 RMK AO2 LTG DSNT SE T02600223
KMDD 160215Z AUTO 16008KT 10SM SCT016 26/22 A2990 RMK AO2 T02600222
KMDD 160155Z AUTO 15005KT 10SM CLR 26/22 A2989 RMK AO2 T02600220
KMDD 160135Z AUTO 15007KT 10SM CLR 26/22 A2988 RMK AO2 T02620220
KMDD 160115Z AUTO 16008KT 10SM CLR 27/22 A2988 RMK AO2 LTG DSNT SE T02650220
KMDD 160055Z AUTO 14008KT 10SM CLR 27/22 A2988 RMK AO2 LTG DSNT SE T02680220
KMDD 160035Z AUTO 15010KT 10SM CLR 27/22 A2988 RMK AO2 LTG DSNT SE T02660221
KMDD 160015Z AUTO 14009KT 10SM CLR 27/22 A2987 RMK AO2 T02650220
KMDD 152355Z AUTO 14008KT 10SM SCT015 27/22 A2987 RMK AO2 LTG DSNT S T02670218 10280 20252
KMDD 152335Z AUTO 15010KT 10SM CLR 27/22 A2987 RMK AO2 LTG DSNT S T02710217
KMDD 152315Z AUTO 14008KT 10SM CLR 27/22 A2987 RMK AO2 LTG DSNT S T02730217
KMDD 152255Z AUTO 16007KT 10SM -RA SCT025 SCT037 SCT050 26/22 A2987 RMK AO2 LTG DSNT S T02630222
KMDD 152235Z AUTO 14006KT 10SM CLR 26/21 A2989 RMK AO2 LTG DSNT S T02590206
KMDD 152215Z AUTO 17007KT 10SM CLR 25/20 A2989 RMK AO2 LTG DSNT S T02530197
KMDD 152155Z AUTO 16008KT 10SM VCTS SCT085 26/19 A2990 RMK AO2 LTG DSNT S THRU W T02550186
KMDD 152135Z AUTO 15011G18KT 10SM SCT120 27/19 A2988 RMK AO2 LTG DSNT S THRU W T02650186
KMDD 152115Z AUTO 15012G20KT 10SM TS BKN120 28/20 A2990 RMK AO2 LTG DSNT S AND SW T02760196
KMDD 152055Z AUTO 13013G20KT 10SM VCTS SCT018 OVC120 28/22 A2990 RMK AO2 LTG DSNT SE THRU SW T02800216
KMDD 152035Z AUTO 12012G17KT 10SM VCTS BKN018 OVC110 28/22 A2991 RMK AO2 LTG DSNT S T02760219
KMDD 152015Z AUTO 11011KT 10SM SCT016 OVC110 27/22 A2991 RMK AO2 LTG DSNT SE AND S T02710220
KMDD 151955Z AUTO 12010G15KT 10SM BKN016 OVC110 27/22 A2991 RMK AO2 LTG DSNT SE AND S T02680218
KMDD 151935Z AUTO 13010KT 10SM BKN014 OVC110 27/22 A2991 RMK AO2 LTG DSNT SE AND S T02650218
KMDD 151915Z AUTO 12011KT 10SM SCT016 OVC120 26/22 A2992 RMK AO2 LTG DSNT SE T02630216
KMDD 151855Z AUTO 14011KT 10SM SCT016 BKN120 26/22 A2993 RMK AO2 LTG DSNT S T02640215
KMDD 151835Z AUTO 14011G18KT 10SM TS SCT016 BKN022 SCT027 27/21 A2993 RMK AO2 T02670212
KMDD 151815Z AUTO 13014G18KT 10SM BKN016 BKN021 BKN027 27/21 A2993 RMK AO2 T02700212
KMDD 151755Z AUTO 12014G18KT 10SM SCT016 SCT021 SCT110 27/21 A2993 RMK AO2 T02710211 10279 20248
KMDD 151735Z AUTO 12015KT 10SM BKN016 BKN021 27/21 A2994 RMK AO2 T02700210
KMDD 151715Z AUTO 12015G20KT 10SM SCT014 BKN023 28/21 A2994 RMK AO2 T02750212
KMDD 151655Z AUTO 10009G17KT 10SM BKN014 BKN021 26/21 A2994 RMK AO2 LTG DSNT NE T02590208
KMDD 151635Z AUTO 08011G15KT 10SM VCTS SCT014 BKN021 BKN028 25/20 A2995 RMK AO2 LTG DSNT NE T02520204
KMDD 151615Z AUTO 07015KT 10SM VCTS SCT017 BKN024 BKN031 25/20 A2995 RMK AO2 T02500203
KMDD 151555Z AUTO 07012G16KT 10SM SCT020 SCT026 SCT100 26/21 A2995 RMK AO2 T02610205
KMDD 151535Z AUTO 08012G16KT 10SM VCTS SCT120 27/20 A2995 RMK AO2 LTG DSNT NE T02650201
KMDD 151515Z AUTO 08013G18KT 10SM VCTS SCT090 BKN110 26/20 A2994 RMK AO2 LTG DSNT NE T02610195
KMDD 151455Z AUTO 07011KT 10SM SCT070 SCT090 BKN110 26/19 A2994 RMK AO2 LTG DSNT NE AND E T02570191
KMDD 151435Z AUTO 05007KT 10SM SCT070 BKN100 26/19 A2994 RMK AO2 LTG DSNT NE AND E T02610190
KMDD 151415Z AUTO 06003KT 10SM VCTS SCT100 25/19 A2993 RMK AO2 LTG DSNT NE AND E T02540190
KMDD 151355Z AUTO 00000KT 10SM CLR 25/19 A2993 RMK AO2 LTG DSNT E T02500187
KMDD 151335Z AUTO 33003KT 10SM SCT055 SCT070 SCT090 26/18 A2992 RMK AO2 T02580182
KMDD 151315Z AUTO 00000KT 10SM BKN070 BKN090 BKN120 26/18 A2992 RMK AO2 T02560177
KMDD 151255Z AUTO 00000KT 10SM BKN080 26/18 A2991 RMK AO2 T02550178
KMDD 151235Z AUTO 15005KT 10SM BKN080 25/18 A2990 RMK AO2 T02510182
KMDD 151215Z AUTO 11003KT 10SM BKN080 25/19 A2990 RMK AO2 T02500189
KMDD 151155Z AUTO 15005KT 10SM CLR 25/18 A2989 RMK AO2 T02510183 10267 20251
KMDD 151135Z AUTO 16006KT 10SM CLR 25/18 A2988 RMK AO2 T02540184
KMDD 151115Z AUTO 16005KT 10SM CLR 25/19 A2988 RMK AO2 T02540185
KMDD 151055Z AUTO 17006KT 10SM CLR 26/19 A2988 RMK AO2 T02550185
KMDD 151035Z AUTO 18006KT 10SM CLR 26/19 A2987 RMK AO2 T02590186
KMDD 151015Z AUTO 19004KT 10SM CLR 26/20 A2987 RMK AO2 T02550195
KMDD 150955Z AUTO 19004KT 10SM CLR 26/20 A2987 RMK AO2 T02550199
KMDD 150935Z AUTO 18003KT 10SM CLR 26/20 A2986 RMK AO2 T02550200
KMDD 150915Z AUTO 17005KT 10SM CLR 25/20 A2985 RMK AO2 T02520200
KMDD 150855Z AUTO 18004KT 10SM CLR 26/20 A2986 RMK AO2 T02550200
KMDD 150835Z AUTO 17004KT 10SM CLR 26/20 A2986 RMK AO2 T02550198
KMDD 150815Z AUTO 17005KT 10SM CLR 26/20 A2986 RMK AO2 T02550196
KMDD 150755Z AUTO 18003KT 10SM CLR 26/20 A2987 RMK AO2 T02600195
KMDD 150735Z AUTO 16004KT 10SM CLR 26/19 A2987 RMK AO2 T02600190